createdAt,value
2017-11-07T00:00:39.290Z,83.20
2017-11-07T00:03:06.737Z,83.20
2017-11-07T00:05:34.180Z,83.40
2017-11-07T00:08:01.615Z,83.60
2017-11-07T00:10:29.867Z,84.20
2017-11-07T00:12:57.306Z,84.20
2017-11-07T00:15:24.747Z,84.20
2017-11-07T00:17:52.187Z,84.30
2017-11-07T00:20:19.637Z,84.00
2017-11-07T00:22:47.074Z,84.00
2017-11-07T00:25:15.291Z,83.90
2017-11-07T00:27:42.752Z,83.80
2017-11-07T00:30:10.196Z,83.80
2017-11-07T00:32:37.668Z,84.00
2017-11-07T00:35:05.120Z,84.00
2017-11-07T00:37:32.577Z,83.90
2017-11-07T00:40:00.031Z,83.70
2017-11-07T00:42:27.483Z,83.70
2017-11-07T00:44:54.919Z,83.90
2017-11-07T00:47:22.353Z,83.70
2017-11-07T00:49:49.795Z,83.70
2017-11-07T00:52:17.236Z,84.00
2017-11-07T00:54:44.691Z,83.90
2017-11-07T00:57:12.130Z,83.90
2017-11-07T00:59:39.607Z,83.90
2017-11-07T01:02:07.046Z,83.90
2017-11-07T01:04:34.500Z,83.90
2017-11-07T01:07:01.959Z,83.90
2017-11-07T01:09:29.415Z,83.80
2017-11-07T01:11:56.871Z,83.70
2017-11-07T01:14:24.329Z,83.60
2017-11-07T01:16:51.787Z,83.60
2017-11-07T01:19:19.206Z,83.60
2017-11-07T01:21:47.434Z,83.60
2017-11-07T01:24:14.876Z,83.60
2017-11-07T01:26:42.367Z,83.60
2017-11-07T01:29:09.806Z,83.70
2017-11-07T01:31:37.251Z,83.60
2017-11-07T01:34:04.709Z,83.60
2017-11-07T01:36:32.212Z,83.60
2017-11-07T01:38:59.651Z,83.50
2017-11-07T01:41:27.096Z,83.60
2017-11-07T01:43:54.543Z,83.50
2017-11-07T01:46:21.986Z,83.60
2017-11-07T01:48:49.446Z,83.60
2017-11-07T01:51:16.889Z,83.70
2017-11-07T01:53:44.319Z,83.70
2017-11-07T01:56:12.538Z,83.60
2017-11-07T01:58:39.986Z,83.60
2017-11-07T02:01:07.422Z,83.60
2017-11-07T02:03:34.861Z,83.60
2017-11-07T02:06:02.306Z,83.30
2017-11-07T02:08:29.738Z,83.20
2017-11-07T02:10:57.205Z,83.20
2017-11-07T02:13:24.653Z,83.50
2017-11-07T02:15:52.091Z,83.50
2017-11-07T02:18:19.539Z,83.60
2017-11-07T02:20:46.971Z,83.80
2017-11-07T02:23:14.419Z,83.90
2017-11-07T02:25:42.632Z,83.60
2017-11-07T02:28:10.077Z,83.60
2017-11-07T02:30:37.511Z,83.70
2017-11-07T02:33:05.730Z,83.70
2017-11-07T02:35:33.148Z,83.60
2017-11-07T02:38:01.360Z,84.20
2017-11-07T02:40:28.849Z,84.10
2017-11-07T02:42:56.278Z,83.90
2017-11-07T02:45:23.727Z,83.80
2017-11-07T02:47:51.158Z,83.80
2017-11-07T02:50:18.601Z,84.00
2017-11-07T02:52:46.800Z,84.00
2017-11-07T02:55:14.255Z,84.00
2017-11-07T02:57:41.692Z,83.90
2017-11-07T03:00:09.887Z,83.80
2017-11-07T03:02:37.345Z,83.80
2017-11-07T03:05:04.779Z,83.80
2017-11-07T03:07:32.999Z,83.90
2017-11-07T03:10:00.443Z,83.70
2017-11-07T03:12:27.887Z,83.80
2017-11-07T03:14:55.319Z,83.70
2017-11-07T03:17:23.519Z,84.00
2017-11-07T03:19:50.946Z,83.90
2017-11-07T03:22:19.151Z,84.00
2017-11-07T03:24:46.606Z,84.00
2017-11-07T03:27:14.044Z,83.70
2017-11-07T03:29:42.251Z,83.90
2017-11-07T03:32:09.696Z,83.90
2017-11-07T03:34:37.140Z,83.90
2017-11-07T03:37:04.579Z,84.00
2017-11-07T03:39:32.782Z,83.80
2017-11-07T03:42:00.222Z,83.80
2017-11-07T03:44:28.436Z,83.70
2017-11-07T03:46:55.890Z,83.70
2017-11-07T03:49:23.334Z,83.70
2017-11-07T03:51:50.802Z,83.90
2017-11-07T03:54:18.255Z,84.00
2017-11-07T03:56:45.708Z,84.00
2017-11-07T03:59:13.138Z,83.90
2017-11-07T04:01:40.576Z,83.70
2017-11-07T04:04:08.023Z,83.90
2017-11-07T04:06:35.458Z,83.90
2017-11-07T04:09:02.918Z,83.80
2017-11-07T04:11:30.361Z,84.00
2017-11-07T04:13:57.809Z,84.00
2017-11-07T04:16:25.242Z,83.80
2017-11-07T04:18:53.446Z,83.80
2017-11-07T04:21:20.887Z,83.80
2017-11-07T04:23:48.369Z,83.80
2017-11-07T04:26:15.815Z,83.90
2017-11-07T04:28:43.255Z,84.40
2017-11-07T04:31:10.714Z,83.60
2017-11-07T04:33:38.143Z,83.80
2017-11-07T04:36:06.366Z,83.90
2017-11-07T04:38:33.802Z,83.90
2017-11-07T04:41:01.257Z,83.80
2017-11-07T04:43:28.685Z,83.70
2017-11-07T04:45:56.890Z,83.70
2017-11-07T04:48:24.322Z,83.70
2017-11-07T04:50:52.550Z,83.50
2017-11-07T04:53:19.977Z,83.50
2017-11-07T04:55:47.415Z,83.40
2017-11-07T04:58:15.628Z,83.80
2017-11-07T05:00:43.062Z,83.70
2017-11-07T05:03:10.509Z,83.70
2017-11-07T05:05:38.714Z,83.60
2017-11-07T05:08:06.165Z,83.60
2017-11-07T05:10:33.593Z,83.60
2017-11-07T05:13:01.852Z,83.60
2017-11-07T05:15:29.278Z,83.50
2017-11-07T05:17:56.732Z,83.40
2017-11-07T05:20:24.942Z,83.40
2017-11-07T05:22:53.150Z,83.50
2017-11-07T05:25:20.599Z,83.50
2017-11-07T05:27:48.031Z,83.50
2017-11-07T05:30:16.255Z,84.20
2017-11-07T05:32:43.693Z,83.50
2017-11-07T05:35:11.131Z,83.60
2017-11-07T05:37:39.348Z,83.50
2017-11-07T05:40:06.811Z,83.50
2017-11-07T05:42:34.261Z,83.50
2017-11-07T05:45:01.698Z,83.40
2017-11-07T05:47:29.150Z,83.40
2017-11-07T05:49:56.615Z,83.30
2017-11-07T05:52:24.070Z,83.40
2017-11-07T05:54:51.499Z,83.30
2017-11-07T05:57:19.713Z,83.30
2017-11-07T05:59:47.139Z,83.40
2017-11-07T06:02:15.363Z,83.40
2017-11-07T06:04:42.842Z,83.30
2017-11-07T06:07:10.296Z,83.40
2017-11-07T06:09:37.737Z,83.30
2017-11-07T06:12:05.198Z,83.30
2017-11-07T06:14:32.633Z,83.20
2017-11-07T06:17:00.078Z,83.20
2017-11-07T06:19:27.514Z,83.20
2017-11-07T06:21:55.734Z,83.30
2017-11-07T06:24:23.175Z,83.10
2017-11-07T06:26:50.607Z,83.20
2017-11-07T06:29:18.046Z,83.00
2017-11-07T06:31:46.250Z,83.10
2017-11-07T06:34:13.694Z,83.10
2017-11-07T06:36:41.153Z,83.00
2017-11-07T06:39:09.362Z,82.90
2017-11-07T06:41:36.812Z,82.90
2017-11-07T06:44:04.263Z,82.90
2017-11-07T06:46:31.750Z,82.90
2017-11-07T06:48:59.171Z,82.80
2017-11-07T06:51:26.606Z,82.70
2017-11-07T06:53:54.814Z,82.70
2017-11-07T06:56:22.259Z,82.60
2017-11-07T06:58:49.709Z,82.70
2017-11-07T07:01:17.139Z,82.70
2017-11-07T07:03:45.348Z,82.50
2017-11-07T07:06:12.785Z,82.50
2017-11-07T07:08:40.991Z,82.50
2017-11-07T07:11:08.406Z,82.50
2017-11-07T07:13:36.627Z,82.40
2017-11-07T07:16:04.066Z,82.40
2017-11-07T07:18:31.507Z,82.40
2017-11-07T07:20:58.948Z,82.20
2017-11-07T07:23:27.165Z,82.30
2017-11-07T07:25:54.612Z,82.30
2017-11-07T07:28:22.054Z,82.20
2017-11-07T07:30:49.490Z,82.30
2017-11-07T07:33:17.702Z,82.30
2017-11-07T07:35:45.130Z,82.20
2017-11-07T07:38:13.342Z,82.20
2017-11-07T07:40:40.786Z,82.20
2017-11-07T07:43:08.222Z,82.10
2017-11-07T07:45:36.434Z,81.80
2017-11-07T07:48:03.891Z,81.70
2017-11-07T07:50:31.327Z,82.20
2017-11-07T07:52:58.777Z,82.40
2017-11-07T07:55:26.212Z,82.40
2017-11-07T07:57:54.425Z,82.80
2017-11-07T08:00:21.908Z,82.50
2017-11-07T08:02:50.114Z,82.20
2017-11-07T08:05:18.322Z,82.60
2017-11-07T08:07:45.763Z,82.50
2017-11-07T08:10:13.972Z,82.30
2017-11-07T08:12:41.440Z,82.30
2017-11-07T08:15:08.862Z,82.20
2017-11-07T08:17:36.290Z,82.20
2017-11-07T08:20:04.517Z,82.20
2017-11-07T08:22:31.956Z,82.20
2017-11-07T08:24:59.395Z,82.20
2017-11-07T08:27:27.596Z,82.20
2017-11-07T08:29:55.043Z,82.20
2017-11-07T08:32:22.476Z,82.20
2017-11-07T08:34:50.696Z,82.20
2017-11-07T08:37:18.147Z,82.10
2017-11-07T08:39:45.611Z,82.10
2017-11-07T08:42:13.038Z,82.20
2017-11-07T08:44:41.258Z,82.20
2017-11-07T08:47:08.698Z,82.10
2017-11-07T08:49:36.150Z,82.20
2017-11-07T08:52:03.576Z,82.20
2017-11-07T08:54:31.790Z,82.10
2017-11-07T08:56:59.230Z,82.10
2017-11-07T08:59:26.684Z,82.10
2017-11-07T09:01:54.120Z,82.90
2017-11-07T09:04:22.334Z,82.10
2017-11-07T09:06:50.704Z,82.20
2017-11-07T09:09:18.226Z,82.20
2017-11-07T09:11:46.426Z,82.30
2017-11-07T09:14:13.875Z,82.20
2017-11-07T09:16:41.318Z,82.30
2017-11-07T09:19:09.533Z,82.40
2017-11-07T09:21:36.983Z,82.40
2017-11-07T09:24:04.445Z,82.40
2017-11-07T09:26:31.878Z,82.40
2017-11-07T09:28:59.333Z,82.50
2017-11-07T09:31:26.763Z,82.50
2017-11-07T09:33:54.211Z,82.30
2017-11-07T09:36:21.646Z,83.10
2017-11-07T09:38:49.111Z,83.10
2017-11-07T09:41:17.390Z,82.40
2017-11-07T09:43:44.835Z,82.40
2017-11-07T09:46:12.295Z,82.40
2017-11-07T09:48:39.733Z,82.40
2017-11-07T09:51:07.187Z,82.40
2017-11-07T09:53:34.622Z,82.40
2017-11-07T09:56:02.071Z,82.30
2017-11-07T09:58:30.265Z,82.40
2017-11-07T10:00:57.719Z,82.40
2017-11-07T10:03:25.168Z,82.40
2017-11-07T10:05:53.387Z,82.40
2017-11-07T10:08:20.832Z,82.30
2017-11-07T10:10:48.298Z,82.30
2017-11-07T10:13:15.782Z,82.30
2017-11-07T10:15:43.251Z,82.30
2017-11-07T10:18:11.514Z,83.10
2017-11-07T10:20:39.049Z,82.30
2017-11-07T10:23:06.496Z,82.40
2017-11-07T10:25:33.948Z,82.30
2017-11-07T10:28:01.397Z,82.40
2017-11-07T10:30:28.860Z,82.50
2017-11-07T10:32:56.303Z,82.50
2017-11-07T10:35:23.754Z,82.50
2017-11-07T10:37:51.199Z,82.40
2017-11-07T10:40:19.419Z,82.40
2017-11-07T10:42:46.858Z,82.40
2017-11-07T10:45:14.311Z,82.40
2017-11-07T10:47:41.760Z,82.40
2017-11-07T10:50:09.215Z,82.40
2017-11-07T10:52:36.675Z,82.40
2017-11-07T10:55:04.123Z,82.40
2017-11-07T10:57:31.717Z,82.40
2017-11-07T10:59:59.202Z,82.40
2017-11-07T11:02:26.638Z,82.40
2017-11-07T11:04:54.119Z,82.40
2017-11-07T11:07:22.468Z,82.40
2017-11-07T11:09:49.919Z,82.40
2017-11-07T11:12:17.350Z,82.40
2017-11-07T11:14:44.797Z,82.40
2017-11-07T11:17:13.033Z,82.50
2017-11-07T11:19:40.461Z,82.50
2017-11-07T11:22:07.942Z,82.50
2017-11-07T11:24:35.382Z,82.40
2017-11-07T11:27:02.834Z,82.50
2017-11-07T11:29:30.273Z,82.50
2017-11-07T11:31:57.722Z,82.50
2017-11-07T11:34:25.153Z,82.50
2017-11-07T11:36:53.401Z,82.50
2017-11-07T11:39:20.856Z,82.50
2017-11-07T11:41:48.290Z,82.50
2017-11-07T11:44:15.721Z,82.50
2017-11-07T11:46:43.172Z,82.50
2017-11-07T11:49:11.391Z,82.50
2017-11-07T11:51:38.834Z,82.50
2017-11-07T11:54:06.315Z,82.50
2017-11-07T11:56:33.771Z,82.50
2017-11-07T11:59:01.272Z,82.50
2017-11-07T12:01:29.536Z,82.60
2017-11-07T12:03:57.807Z,83.10
2017-11-07T12:06:25.431Z,82.50
2017-11-07T12:08:52.910Z,82.50
2017-11-07T12:11:20.351Z,82.50
2017-11-07T12:13:47.806Z,82.50
2017-11-07T12:16:15.258Z,82.50
2017-11-07T12:18:42.718Z,82.50
2017-11-07T12:21:10.175Z,82.40
2017-11-07T12:23:37.655Z,82.40
2017-11-07T12:26:05.130Z,82.50
2017-11-07T12:28:33.365Z,82.40
2017-11-07T12:31:00.806Z,82.40
2017-11-07T12:33:28.293Z,82.40
2017-11-07T12:35:55.735Z,82.40
2017-11-07T12:38:23.195Z,82.40
2017-11-07T12:40:50.636Z,82.40
2017-11-07T12:43:18.074Z,82.30
2017-11-07T12:45:45.508Z,82.40
2017-11-07T12:48:13.738Z,82.40
2017-11-07T12:50:53.135Z,82.40
2017-11-07T12:53:20.586Z,82.30
2017-11-07T12:55:48.806Z,82.30
2017-11-07T12:58:16.267Z,82.20
2017-11-07T13:00:43.714Z,82.30
2017-11-07T13:03:11.193Z,82.30
2017-11-07T13:05:38.633Z,82.20
2017-11-07T13:08:06.065Z,82.20
2017-11-07T13:10:33.506Z,82.20
2017-11-07T13:13:01.728Z,82.30
2017-11-07T13:15:29.953Z,82.20
2017-11-07T13:17:58.244Z,82.20
2017-11-07T13:20:25.675Z,82.20
2017-11-07T13:22:53.906Z,82.20
2017-11-07T13:25:21.360Z,82.20
2017-11-07T13:27:48.814Z,82.20
2017-11-07T13:30:16.246Z,82.10
2017-11-07T13:32:43.697Z,82.20
2017-11-07T13:35:11.141Z,82.20
2017-11-07T13:37:39.359Z,82.20
2017-11-07T13:40:06.895Z,82.20
2017-11-07T13:42:35.220Z,82.20
2017-11-07T13:45:02.660Z,82.10
2017-11-07T13:47:30.110Z,82.20
2017-11-07T13:49:57.574Z,82.10
2017-11-07T13:52:25.027Z,82.20
2017-11-07T13:54:52.511Z,82.20
2017-11-07T13:57:19.939Z,82.20
2017-11-07T13:59:47.410Z,82.10
2017-11-07T14:02:14.863Z,82.10
2017-11-07T14:04:42.353Z,82.10
2017-11-07T14:07:09.804Z,82.10
2017-11-07T14:09:37.263Z,82.10
2017-11-07T14:12:04.756Z,82.20
2017-11-07T14:14:32.225Z,82.10
2017-11-07T14:16:59.696Z,82.10
2017-11-07T14:19:27.171Z,82.20
2017-11-07T14:21:54.625Z,82.10
2017-11-07T14:24:22.068Z,82.20
2017-11-07T14:26:49.517Z,82.20
2017-11-07T14:29:16.987Z,82.20
2017-11-07T14:31:44.442Z,82.20
2017-11-07T14:34:11.883Z,82.20
2017-11-07T14:36:39.336Z,82.20
2017-11-07T14:39:06.810Z,82.20
2017-11-07T14:41:34.235Z,82.10
2017-11-07T14:44:01.798Z,82.20
2017-11-07T14:46:29.320Z,82.20
2017-11-07T14:48:56.768Z,82.30
2017-11-07T14:51:24.220Z,82.30
2017-11-07T14:53:51.690Z,82.20
2017-11-07T14:56:19.148Z,82.20
2017-11-07T14:58:47.359Z,82.20
2017-11-07T15:01:15.601Z,82.20
2017-11-07T15:03:43.068Z,82.10
2017-11-07T15:06:10.538Z,82.10
2017-11-07T15:08:38.766Z,82.30
2017-11-07T15:11:06.248Z,82.20
2017-11-07T15:13:33.710Z,82.20
2017-11-07T15:16:01.179Z,82.20
2017-11-07T15:18:28.629Z,82.20
2017-11-07T15:20:56.058Z,82.20
2017-11-07T15:23:23.532Z,82.20
2017-11-07T15:25:50.974Z,82.30
2017-11-07T15:28:18.446Z,82.30
2017-11-07T15:30:45.887Z,82.30
2017-11-07T15:33:13.346Z,82.20
2017-11-07T15:35:40.787Z,82.20
2017-11-07T15:38:08.239Z,82.20
2017-11-07T15:40:35.696Z,82.20
2017-11-07T15:43:03.149Z,82.30
2017-11-07T15:45:30.622Z,82.30
2017-11-07T15:47:58.071Z,82.30
2017-11-07T15:50:25.527Z,82.30
2017-11-07T15:52:52.970Z,82.30
2017-11-07T15:55:20.406Z,82.20
2017-11-07T15:57:48.614Z,82.30
2017-11-07T16:00:16.067Z,82.20
2017-11-07T16:02:43.502Z,82.30
2017-11-07T16:05:10.960Z,82.30
2017-11-07T16:07:38.415Z,82.20
2017-11-07T16:10:05.875Z,82.20
2017-11-07T16:12:33.312Z,82.20
2017-11-07T16:15:01.543Z,82.20
2017-11-07T16:17:29.052Z,82.20
2017-11-07T16:19:57.281Z,82.30
2017-11-07T16:22:24.786Z,82.30
2017-11-07T16:24:52.227Z,82.20
2017-11-07T16:27:19.671Z,82.30
2017-11-07T16:29:47.120Z,82.30
2017-11-07T16:32:14.571Z,82.20
2017-11-07T16:34:42.031Z,82.30
2017-11-07T16:37:09.470Z,82.30
2017-11-07T16:39:36.929Z,82.30
2017-11-07T16:42:04.390Z,82.30
2017-11-07T16:44:31.873Z,82.30
2017-11-07T16:46:59.301Z,82.30
2017-11-07T16:49:26.801Z,82.30
2017-11-07T16:51:54.238Z,82.30
2017-11-07T16:54:21.695Z,82.90
2017-11-07T16:56:49.148Z,82.30
2017-11-07T16:59:16.684Z,83.00
2017-11-07T17:01:44.122Z,82.30
2017-11-07T17:04:11.584Z,82.30
2017-11-07T17:06:39.030Z,82.30
2017-11-07T17:09:06.509Z,82.30
2017-11-07T17:11:33.966Z,82.30
2017-11-07T17:14:01.457Z,82.30
2017-11-07T17:16:28.946Z,82.30
2017-11-07T17:18:57.205Z,82.30
2017-11-07T17:21:24.679Z,82.30
2017-11-07T17:23:52.903Z,82.40
2017-11-07T17:26:20.398Z,82.30
2017-11-07T17:28:47.956Z,82.40
2017-11-07T17:31:15.445Z,82.70
2017-11-07T17:33:42.894Z,82.80
2017-11-07T17:36:11.172Z,82.40
2017-11-07T17:38:39.387Z,82.30
2017-11-07T17:41:06.847Z,82.30
2017-11-07T17:43:34.285Z,82.30
2017-11-07T17:46:01.818Z,82.50
2017-11-07T17:48:30.048Z,82.40
2017-11-07T17:50:57.530Z,82.40
2017-11-07T17:53:24.978Z,82.40
2017-11-07T17:55:52.457Z,82.40
2017-11-07T17:58:20.676Z,82.40
2017-11-07T18:00:48.166Z,82.40
2017-11-07T18:03:15.608Z,82.40
2017-11-07T18:05:43.073Z,82.40
2017-11-07T18:08:10.525Z,82.40
2017-11-07T18:10:37.974Z,82.40
2017-11-07T18:13:05.435Z,82.40
2017-11-07T18:15:32.922Z,82.40
2017-11-07T18:18:01.146Z,82.50
2017-11-07T18:20:28.599Z,82.40
2017-11-07T18:22:56.047Z,82.40
2017-11-07T18:25:23.499Z,82.40
2017-11-07T18:27:50.939Z,82.40
2017-11-07T18:30:19.174Z,82.50
2017-11-07T18:32:46.642Z,82.50
2017-11-07T18:35:14.871Z,82.50
2017-11-07T18:37:42.370Z,82.50
2017-11-07T18:40:09.838Z,82.50
2017-11-07T18:42:37.295Z,82.50
2017-11-07T18:45:04.766Z,82.50
2017-11-07T18:47:33.049Z,82.80
2017-11-07T18:50:01.264Z,82.50
2017-11-07T18:52:28.721Z,82.50
2017-11-07T18:54:56.173Z,82.50
2017-11-07T18:57:23.654Z,82.50
2017-11-07T18:59:51.119Z,82.50
2017-11-07T19:02:18.596Z,82.50
2017-11-07T19:04:46.038Z,82.50
2017-11-07T19:07:13.530Z,82.50
2017-11-07T19:09:41.795Z,82.60
2017-11-07T19:12:09.300Z,82.50
2017-11-07T19:14:36.728Z,82.70
2017-11-07T19:17:04.186Z,82.60
2017-11-07T19:19:31.673Z,82.60
2017-11-07T19:21:59.143Z,82.70
2017-11-07T19:24:26.615Z,82.60
2017-11-07T19:26:54.052Z,82.60
2017-11-07T19:29:21.514Z,82.60
2017-11-07T19:31:48.998Z,82.70
2017-11-07T19:34:16.483Z,82.70
2017-11-07T19:36:45.123Z,82.70
2017-11-07T19:39:12.570Z,82.70
2017-11-07T19:41:40.027Z,82.70
2017-11-07T19:44:07.475Z,82.80
2017-11-07T19:46:34.965Z,82.90
2017-11-07T19:49:02.442Z,82.90
2017-11-07T19:51:30.774Z,83.00
2017-11-07T19:53:58.233Z,83.00
2017-11-07T19:56:25.695Z,82.90
2017-11-07T19:58:53.170Z,83.10
2017-11-07T20:01:20.647Z,83.00
2017-11-07T20:03:48.111Z,82.90
2017-11-07T20:06:16.351Z,83.70
2017-11-07T20:08:43.823Z,82.90
2017-11-07T20:11:11.292Z,82.90
2017-11-07T20:13:38.741Z,82.90
2017-11-07T20:16:06.200Z,83.10
2017-11-07T20:18:33.715Z,82.90
2017-11-07T20:21:01.161Z,82.90
2017-11-07T20:23:28.646Z,83.00
2017-11-07T20:25:56.096Z,83.10
2017-11-07T20:28:23.554Z,83.00
2017-11-07T20:30:51.037Z,83.10
2017-11-07T20:33:18.491Z,83.10
2017-11-07T20:35:45.954Z,83.10
2017-11-07T20:38:13.518Z,83.10
2017-11-07T20:40:41.001Z,83.10
2017-11-07T20:43:09.218Z,83.10
2017-11-07T20:45:36.672Z,83.10
2017-11-07T20:48:04.141Z,83.10
2017-11-07T20:50:31.601Z,83.10
2017-11-07T20:52:59.051Z,83.10
2017-11-07T20:55:26.498Z,83.10
2017-11-07T20:57:54.005Z,83.10
2017-11-07T21:00:21.452Z,83.10
2017-11-07T21:02:48.903Z,83.10
2017-11-07T21:05:16.364Z,83.10
2017-11-07T21:07:43.904Z,83.10
2017-11-07T21:10:11.347Z,83.10
2017-11-07T21:12:38.830Z,83.10
2017-11-07T21:15:06.272Z,83.10
2017-11-07T21:17:33.767Z,83.10
2017-11-07T21:20:01.204Z,83.10
2017-11-07T21:22:28.666Z,83.10
2017-11-07T21:24:56.147Z,83.10
2017-11-07T21:27:24.399Z,83.30
2017-11-07T21:29:51.892Z,83.20
2017-11-07T21:32:19.411Z,83.30
2017-11-07T21:34:46.861Z,83.30
2017-11-07T21:37:14.344Z,83.20
2017-11-07T21:39:41.790Z,83.30
2017-11-07T21:42:09.233Z,84.10
2017-11-07T21:44:36.792Z,83.30
2017-11-07T21:47:04.231Z,83.30
2017-11-07T21:49:31.700Z,83.40
2017-11-07T21:51:59.143Z,83.40
2017-11-07T21:54:26.739Z,83.40
2017-11-07T21:56:54.177Z,83.50
2017-11-07T21:59:21.636Z,83.40
2017-11-07T22:01:49.099Z,83.50
2017-11-07T22:04:16.549Z,83.40
2017-11-07T22:06:44.019Z,83.40
2017-11-07T22:09:12.387Z,83.50
2017-11-07T22:11:39.838Z,83.50
2017-11-07T22:14:07.315Z,83.50
2017-11-07T22:16:53.474Z,83.50
2017-11-07T22:19:20.901Z,83.50
2017-11-07T22:21:49.242Z,83.50
2017-11-07T22:24:16.686Z,83.50
2017-11-07T22:26:44.146Z,83.50
2017-11-07T22:29:11.582Z,83.50
2017-11-07T22:31:39.042Z,83.50
2017-11-07T22:34:06.498Z,83.40
2017-11-07T22:36:33.957Z,83.40
2017-11-07T22:39:01.415Z,83.40
2017-11-07T22:41:28.844Z,83.40
2017-11-07T22:43:56.282Z,83.50
2017-11-07T22:46:24.492Z,83.50
2017-11-07T22:48:52.746Z,83.50
2017-11-07T22:51:20.201Z,83.50
2017-11-07T22:53:47.660Z,83.50
2017-11-07T22:56:15.860Z,83.50
2017-11-07T22:58:43.318Z,83.50
2017-11-07T23:01:10.781Z,83.50
2017-11-07T23:03:38.230Z,83.50
2017-11-07T23:06:05.694Z,83.50
2017-11-07T23:08:33.145Z,83.60
2017-11-07T23:11:00.574Z,83.60
2017-11-07T23:13:28.840Z,83.70
2017-11-07T23:15:57.057Z,83.70
2017-11-07T23:18:24.513Z,83.70
2017-11-07T23:20:51.967Z,83.70
2017-11-07T23:23:19.403Z,83.70
2017-11-07T23:25:46.858Z,83.70
2017-11-07T23:28:15.067Z,83.70
2017-11-07T23:30:42.518Z,83.70
2017-11-07T23:33:09.946Z,83.60
2017-11-07T23:35:37.395Z,83.70
2017-11-07T23:38:05.604Z,83.60
2017-11-07T23:40:33.054Z,83.70
2017-11-07T23:43:00.488Z,83.70
2017-11-07T23:45:27.938Z,83.70
2017-11-07T23:47:56.152Z,83.70
2017-11-07T23:50:24.519Z,83.70
2017-11-07T23:52:52.875Z,83.70
2017-11-07T23:55:20.358Z,83.80
2017-11-07T23:57:47.808Z,83.80
